createdAt,value
2022-09-01T00:01:24.328Z,48.14
2022-09-01T00:03:53.014Z,48.88
2022-09-01T00:06:22.805Z,48.26
2022-09-01T00:08:50.657Z,48.38
2022-09-01T00:11:18.753Z,48.15
2022-09-01T00:13:46.001Z,50.12
2022-09-01T00:16:15.298Z,51.19
2022-09-01T00:18:43.772Z,50.63
2022-09-01T00:21:11.196Z,50.96
2022-09-01T00:23:38.494Z,51.30
2022-09-01T00:26:06.076Z,51.31
2022-09-01T00:28:33.937Z,51.08
2022-09-01T00:31:01.681Z,50.48
2022-09-01T00:33:29.340Z,51.52
2022-09-01T00:35:56.738Z,51.78
2022-09-01T00:38:24.158Z,52.61
2022-09-01T00:40:51.807Z,52.14
2022-09-01T00:43:23.437Z,51.33
2022-09-01T00:45:51.980Z,50.08
2022-09-01T00:48:21.822Z,51.89
2022-09-01T00:50:49.528Z,51.24
2022-09-01T00:53:20.122Z,52.19
2022-09-01T00:55:47.402Z,52.42
2022-09-01T00:58:18.327Z,51.76
2022-09-01T01:00:47.500Z,51.83
2022-09-01T01:03:14.805Z,51.39
2022-09-01T01:05:54.364Z,51.92
2022-09-01T01:08:27.684Z,50.13
2022-09-01T01:10:55.083Z,50.54
2022-09-01T01:13:26.068Z,50.31
2022-09-01T01:15:53.398Z,50.40
2022-09-01T01:18:22.995Z,49.86
2022-09-01T01:21:16.474Z,51.99
2022-09-01T01:23:45.890Z,51.17
2022-09-01T01:26:13.595Z,51.63
2022-09-01T01:28:41.633Z,51.02
2022-09-01T01:31:13.703Z,50.69
2022-09-01T01:33:46.549Z,51.49
2022-09-01T01:36:16.077Z,51.14
2022-09-01T01:38:47.610Z,52.32
2022-09-01T01:41:16.417Z,51.71
2022-09-01T01:43:44.060Z,51.74
2022-09-01T01:46:12.249Z,50.80
2022-09-01T01:48:41.631Z,50.50
2022-09-01T01:51:10.577Z,51.40
2022-09-01T01:53:38.033Z,51.47
2022-09-01T01:56:06.259Z,51.71
2022-09-01T01:58:35.963Z,51.99
2022-09-01T02:01:07.102Z,51.83
2022-09-01T02:03:38.799Z,52.69
2022-09-01T02:06:08.218Z,53.05
2022-09-01T02:08:36.628Z,51.39
2022-09-01T02:11:05.196Z,51.63
2022-09-01T02:13:32.617Z,53.07
2022-09-01T02:16:01.668Z,52.47
2022-09-01T02:21:01.575Z,54.12
2022-09-01T02:23:29.997Z,53.10
2022-09-01T02:26:15.578Z,52.44
2022-09-01T02:28:45.459Z,51.96
2022-09-01T02:31:12.927Z,52.23
2022-09-01T02:33:40.724Z,52.19
2022-09-01T02:36:10.252Z,52.29
2022-09-01T02:38:38.848Z,51.86
2022-09-01T02:41:06.985Z,51.41
2022-09-01T02:43:34.532Z,50.88
2022-09-01T02:46:02.069Z,51.10
2022-09-01T02:48:32.957Z,50.91
2022-09-01T02:51:02.056Z,51.53
2022-09-01T02:53:29.823Z,51.03
2022-09-01T02:56:00.664Z,51.48
2022-09-01T02:58:29.101Z,52.31
2022-09-01T03:00:57.084Z,52.18
2022-09-01T03:03:24.825Z,53.21
2022-09-01T03:05:56.312Z,52.20
2022-09-01T03:08:24.473Z,53.23
2022-09-01T03:10:53.917Z,53.22
2022-09-01T03:13:22.407Z,51.93
2022-09-01T03:15:51.142Z,52.60
2022-09-01T03:18:18.830Z,51.10
2022-09-01T03:20:46.674Z,50.28
2022-09-01T03:23:14.995Z,50.60
2022-09-01T03:25:47.843Z,50.75
2022-09-01T03:28:15.736Z,50.47
2022-09-01T03:30:50.425Z,51.59
2022-09-01T03:33:18.727Z,51.46
2022-09-01T03:35:46.512Z,52.71
2022-09-01T03:38:20.736Z,52.81
2022-09-01T03:40:49.430Z,52.62
2022-09-01T03:43:17.976Z,54.04
2022-09-01T03:45:46.236Z,53.68
2022-09-01T03:48:16.331Z,54.70
2022-09-01T03:50:47.578Z,51.05
2022-09-01T03:53:17.068Z,51.20
2022-09-01T03:55:45.237Z,51.98
2022-09-01T03:58:14.586Z,51.37
2022-09-01T04:00:48.679Z,50.86
2022-09-01T04:03:28.509Z,51.13
2022-09-01T04:05:56.662Z,52.03
2022-09-01T04:08:27.563Z,52.07
2022-09-01T04:11:02.764Z,51.93
2022-09-01T04:15:57.986Z,52.67
2022-09-01T04:18:25.681Z,53.00
2022-09-01T04:20:54.274Z,52.51
2022-09-01T04:23:33.540Z,51.55
2022-09-01T04:26:08.999Z,51.19
2022-09-01T04:28:40.333Z,51.38
2022-09-01T04:31:09.278Z,51.04
2022-09-01T04:33:38.159Z,51.28
2022-09-01T04:36:07.022Z,49.86
2022-09-01T04:38:37.164Z,50.22
2022-09-01T04:41:07.641Z,49.64
2022-09-01T04:43:35.289Z,49.96
2022-09-01T04:46:03.354Z,49.46
2022-09-01T04:48:31.720Z,50.17
2022-09-01T04:50:59.487Z,50.90
2022-09-01T04:53:28.454Z,51.06
2022-09-01T04:55:56.013Z,50.75
2022-09-01T04:58:24.640Z,50.65
2022-09-01T05:00:52.341Z,49.21
2022-09-01T05:03:24.113Z,49.47
2022-09-01T05:05:54.136Z,50.38
2022-09-01T05:08:24.445Z,50.01
2022-09-01T05:10:55.725Z,50.56
2022-09-01T05:13:24.428Z,51.05
2022-09-01T05:16:02.710Z,49.99
2022-09-01T05:18:30.366Z,52.03
2022-09-01T05:20:58.087Z,51.42
2022-09-01T05:23:26.715Z,50.92
2022-09-01T05:25:55.005Z,50.71
2022-09-01T05:28:25.403Z,52.14
2022-09-01T05:30:55.656Z,50.96
2022-09-01T05:33:23.455Z,50.32
2022-09-01T05:35:55.627Z,50.75
2022-09-01T05:38:24.260Z,51.27
2022-09-01T05:40:59.173Z,52.52
2022-09-01T05:43:27.902Z,51.25
2022-09-01T05:46:06.688Z,50.91
2022-09-01T05:48:39.894Z,51.32
2022-09-01T05:51:22.279Z,51.42
2022-09-01T05:53:59.331Z,50.85
2022-09-01T05:56:28.037Z,51.94
2022-09-01T06:01:48.129Z,52.59
2022-09-01T06:04:17.862Z,53.26
2022-09-01T06:07:06.874Z,52.64
2022-09-01T06:09:38.749Z,51.68
2022-09-01T06:12:06.726Z,53.12
2022-09-01T06:14:34.653Z,51.34
2022-09-01T06:17:03.332Z,51.93
2022-09-01T06:19:36.875Z,51.86
2022-09-01T06:22:05.011Z,52.36
2022-09-01T06:24:32.581Z,51.95
2022-09-01T06:26:59.930Z,51.22
2022-09-01T06:29:27.552Z,51.27
2022-09-01T06:31:54.991Z,52.26
2022-09-01T06:34:22.426Z,53.05
2022-09-01T06:36:51.804Z,51.53
2022-09-01T06:39:22.073Z,51.20
2022-09-01T06:41:52.971Z,50.31
2022-09-01T06:44:23.144Z,50.25
2022-09-01T06:46:53.119Z,50.28
2022-09-01T06:49:21.570Z,51.13
2022-09-01T06:51:52.840Z,50.73
2022-09-01T06:54:23.120Z,50.46
2022-09-01T06:56:51.788Z,50.88
2022-09-01T06:59:38.632Z,52.00
2022-09-01T07:02:06.691Z,51.49
2022-09-01T07:04:43.227Z,49.54
2022-09-01T07:10:18.680Z,51.03
2022-09-01T07:13:05.756Z,52.18
2022-09-01T07:18:25.264Z,52.98
2022-09-01T07:21:36.347Z,51.25
2022-09-01T07:24:07.923Z,51.68
2022-09-01T07:26:33.941Z,51.38
2022-09-01T07:29:04.218Z,51.18
2022-09-01T07:32:44.057Z,50.96
2022-09-01T07:34:41.940Z,52.93
2022-09-01T07:45:34.857Z,53.62
2022-09-01T07:48:03.491Z,54.36
2022-09-01T07:51:35.097Z,52.96
2022-09-01T07:53:31.587Z,52.67
2022-09-01T07:56:00.116Z,52.78
2022-09-01T07:58:28.438Z,51.84
2022-09-01T08:00:57.463Z,50.32
2022-09-01T08:03:25.268Z,51.34
2022-09-01T08:05:57.727Z,50.45
2022-09-01T08:08:29.010Z,51.38
2022-09-01T08:11:04.377Z,51.44
2022-09-01T08:13:41.178Z,49.58
2022-09-01T08:16:16.809Z,51.67
2022-09-01T08:18:48.565Z,51.24
2022-09-01T08:21:22.261Z,51.27
2022-09-01T08:23:54.360Z,51.53
2022-09-01T08:26:22.992Z,51.98
2022-09-01T08:28:54.913Z,51.24
2022-09-01T08:31:25.199Z,52.04
2022-09-01T08:33:53.677Z,51.89
2022-09-01T08:36:23.968Z,51.26
2022-09-01T08:38:53.455Z,50.86
2022-09-01T08:41:39.837Z,49.67
2022-09-01T08:44:32.476Z,50.49
2022-09-01T08:47:02.119Z,50.75
2022-09-01T08:49:30.336Z,50.91
2022-09-01T08:52:18.238Z,51.45
2022-09-01T08:54:47.474Z,51.70
2022-09-01T08:57:20.098Z,51.74
2022-09-01T08:59:49.945Z,51.25
2022-09-01T09:02:23.710Z,50.33
2022-09-01T09:04:57.483Z,49.44
2022-09-01T09:07:36.892Z,50.20
2022-09-01T09:10:27.637Z,50.33
2022-09-01T09:12:55.727Z,49.22
2022-09-01T09:15:37.355Z,49.48
2022-09-01T09:18:19.912Z,50.17
2022-09-01T09:20:51.570Z,50.50
2022-09-01T09:23:23.995Z,52.06
2022-09-01T09:25:52.114Z,49.94
2022-09-01T09:28:19.386Z,50.18
2022-09-01T09:30:47.140Z,51.06
2022-09-01T09:33:53.596Z,50.07
2022-09-01T09:36:25.464Z,51.17
2022-09-01T09:39:07.169Z,51.43
2022-09-01T09:41:36.028Z,52.07
2022-09-01T09:44:08.495Z,50.76
2022-09-01T09:46:39.476Z,50.17
2022-09-01T09:49:11.665Z,48.35
2022-09-01T09:51:40.646Z,48.91
2022-09-01T09:54:13.415Z,49.79
2022-09-01T09:56:46.987Z,50.96
2022-09-01T09:59:39.484Z,49.59
2022-09-01T10:02:20.813Z,49.79
2022-09-01T10:04:55.611Z,49.80
2022-09-01T10:07:31.175Z,49.29
2022-09-01T10:10:01.782Z,49.88
2022-09-01T10:12:29.444Z,47.97
2022-09-01T10:14:58.921Z,51.23
2022-09-01T10:17:35.902Z,51.49
2022-09-01T10:20:14.741Z,50.18
2022-09-01T10:22:42.281Z,45.52
2022-09-01T10:25:14.261Z,48.95
2022-09-01T10:27:42.286Z,51.29
2022-09-01T10:30:18.694Z,46.14
2022-09-01T10:32:55.786Z,47.76
2022-09-01T10:35:28.599Z,44.34
2022-09-01T10:37:58.003Z,46.74
2022-09-01T10:40:31.599Z,44.25
2022-09-01T10:43:00.967Z,45.40
2022-09-01T10:45:38.788Z,43.64
2022-09-01T10:48:48.549Z,44.05
2022-09-01T10:51:19.476Z,41.52
2022-09-01T10:53:49.317Z,43.07
2022-09-01T10:56:28.509Z,41.51
2022-09-01T11:02:22.245Z,41.57
2022-09-01T11:04:41.329Z,41.40
2022-09-01T11:07:26.850Z,41.20
2022-09-01T11:10:11.391Z,42.05
2022-09-01T11:12:57.953Z,40.52
2022-09-01T11:15:39.301Z,40.09
2022-09-01T11:18:17.498Z,39.88
2022-09-01T11:20:46.671Z,40.75
2022-09-01T11:23:28.052Z,37.49
2022-09-01T11:26:20.637Z,39.98
2022-09-01T11:28:48.138Z,39.53
2022-09-01T11:31:18.742Z,37.40
2022-09-01T11:33:47.697Z,35.26
2022-09-01T11:36:22.170Z,35.67
2022-09-01T11:38:51.529Z,35.48
2022-09-01T11:41:33.913Z,34.88
2022-09-01T11:44:02.962Z,34.85
2022-09-01T11:46:34.908Z,35.53
2022-09-01T11:49:10.771Z,35.10
2022-09-01T11:51:39.499Z,36.52
2022-09-01T11:54:07.114Z,34.98
2022-09-01T11:56:34.370Z,34.77
2022-09-01T11:59:01.680Z,35.28
2022-09-01T12:01:36.517Z,34.67
2022-09-01T12:04:20.146Z,35.20
2022-09-01T12:06:51.764Z,35.18
2022-09-01T12:09:19.344Z,36.32
2022-09-01T12:11:46.574Z,35.83
2022-09-01T12:14:19.249Z,33.56
2022-09-01T12:16:48.602Z,35.14
2022-09-01T12:19:23.020Z,34.18
2022-09-01T12:21:56.977Z,34.53
2022-09-01T12:24:24.670Z,35.29
2022-09-01T12:26:54.670Z,33.86
2022-09-01T12:29:23.201Z,33.96
2022-09-01T12:31:52.512Z,34.05
2022-09-01T12:34:38.942Z,35.29
2022-09-01T12:37:09.366Z,34.38
2022-09-01T12:39:36.997Z,34.91
2022-09-01T12:42:08.924Z,33.52
2022-09-01T12:44:39.713Z,33.89
2022-09-01T12:47:08.387Z,33.98
2022-09-01T12:49:37.953Z,35.65
2022-09-01T12:52:27.768Z,35.84
2022-09-01T12:54:58.363Z,35.19
2022-09-01T12:57:33.827Z,34.43
2022-09-01T13:00:19.853Z,35.64
2022-09-01T13:02:49.391Z,34.43
2022-09-01T13:05:20.786Z,34.23
2022-09-01T13:07:48.500Z,33.26
2022-09-01T13:10:15.880Z,33.19
2022-09-01T13:12:43.825Z,33.88
2022-09-01T13:17:41.868Z,31.85
2022-09-01T13:20:09.375Z,31.28
2022-09-01T13:22:38.215Z,31.86
2022-09-01T13:25:05.741Z,31.88
2022-09-01T13:27:33.106Z,31.71
2022-09-01T13:30:00.701Z,32.45
2022-09-01T13:32:28.100Z,34.88
2022-09-01T13:34:55.496Z,34.55
2022-09-01T13:37:23.627Z,33.54
2022-09-01T13:39:51.017Z,33.69
2022-09-01T13:42:18.443Z,32.87
2022-09-01T13:44:49.660Z,33.88
2022-09-01T13:47:33.991Z,33.94
2022-09-01T13:50:11.458Z,32.59
2022-09-01T13:52:40.162Z,30.40
2022-09-01T13:55:08.395Z,30.82
2022-09-01T13:57:49.036Z,31.69
2022-09-01T14:00:19.218Z,32.84
2022-09-01T14:02:50.324Z,31.95
2022-09-01T14:05:18.836Z,31.75
2022-09-01T14:07:46.154Z,31.64
2022-09-01T14:10:14.411Z,31.50
2022-09-01T14:12:41.957Z,29.73
2022-09-01T14:15:12.351Z,30.21
2022-09-01T14:17:42.199Z,29.42
2022-09-01T14:20:12.824Z,29.97
2022-09-01T14:22:43.080Z,29.96
2022-09-01T14:25:10.886Z,29.33
2022-09-01T14:27:38.449Z,30.28
2022-09-01T14:30:06.573Z,29.44
2022-09-01T14:32:34.426Z,30.06
2022-09-01T14:35:02.063Z,29.01
2022-09-01T14:37:29.609Z,30.86
2022-09-01T14:39:57.617Z,30.16
2022-09-01T14:42:29.137Z,28.19
2022-09-01T14:44:56.690Z,28.80
2022-09-01T14:47:25.582Z,28.89
2022-09-01T14:49:53.410Z,29.83
2022-09-01T14:52:22.104Z,28.50
2022-09-01T14:54:49.628Z,28.98
2022-09-01T14:57:37.761Z,30.90
2022-09-01T15:00:05.851Z,29.78
2022-09-01T15:02:33.392Z,30.20
2022-09-01T15:05:01.382Z,28.45
2022-09-01T15:07:29.006Z,28.96
2022-09-01T15:09:58.749Z,29.14
2022-09-01T15:12:30.966Z,28.25
2022-09-01T15:15:01.400Z,28.91
2022-09-01T15:17:29.022Z,27.84
2022-09-01T15:19:56.276Z,28.46
2022-09-01T15:22:23.869Z,28.40
2022-09-01T15:24:51.452Z,28.71
2022-09-01T15:27:19.017Z,27.65
2022-09-01T15:29:49.015Z,28.16
2022-09-01T15:32:27.409Z,28.93
2022-09-01T15:34:55.975Z,28.70
2022-09-01T15:37:23.305Z,29.58
2022-09-01T15:39:50.579Z,28.74
2022-09-01T15:42:18.552Z,28.24
2022-09-01T15:44:47.391Z,29.44
2022-09-01T15:47:14.693Z,28.48
2022-09-01T15:49:42.332Z,29.24
2022-09-01T15:52:11.061Z,28.40
2022-09-01T15:54:38.530Z,29.60
2022-09-01T15:57:06.326Z,28.86
2022-09-01T15:59:40.072Z,29.20
2022-09-01T16:02:07.789Z,29.81
2022-09-01T16:04:35.528Z,29.35
2022-09-01T16:07:02.855Z,28.71
2022-09-01T16:09:30.871Z,28.68
2022-09-01T16:11:59.868Z,28.64
2022-09-01T16:14:28.469Z,28.83
2022-09-01T16:16:58.362Z,28.96
2022-09-01T16:19:29.077Z,29.32
2022-09-01T16:22:14.035Z,28.34
2022-09-01T16:24:43.580Z,28.52
2022-09-01T16:27:12.874Z,28.78
2022-09-01T16:29:45.235Z,28.78
2022-09-01T16:32:13.066Z,28.92
2022-09-01T16:34:49.834Z,29.15
2022-09-01T16:37:18.171Z,29.72
2022-09-01T16:39:54.719Z,29.57
2022-09-01T16:43:01.065Z,28.78
2022-09-01T16:45:36.152Z,29.25
2022-09-01T16:48:11.622Z,29.06
2022-09-01T16:50:38.873Z,29.33
2022-09-01T16:53:18.875Z,29.67
2022-09-01T16:56:22.750Z,29.77
2022-09-01T16:59:08.916Z,29.55
2022-09-01T17:01:40.174Z,30.22
2022-09-01T17:04:11.958Z,30.17
2022-09-01T17:06:57.906Z,31.32
2022-09-01T17:09:33.783Z,31.48
2022-09-01T17:12:23.239Z,31.07
2022-09-01T17:15:03.175Z,31.75
2022-09-01T17:17:35.854Z,32.85
2022-09-01T17:20:04.705Z,32.41
2022-09-01T17:22:32.163Z,34.08
2022-09-01T17:27:51.080Z,33.57
2022-09-01T17:30:18.637Z,34.14
2022-09-01T17:33:18.498Z,34.42
2022-09-01T17:35:50.232Z,34.26
2022-09-01T17:38:29.999Z,34.45
2022-09-01T17:41:05.459Z,34.40
2022-09-01T17:43:36.103Z,35.18
2022-09-01T17:46:04.509Z,35.39
2022-09-01T17:48:40.051Z,36.26
2022-09-01T17:51:28.149Z,36.60
2022-09-01T17:54:01.714Z,37.46
2022-09-01T17:56:32.768Z,37.84
2022-09-01T17:59:18.435Z,38.33
2022-09-01T18:02:04.994Z,38.42
2022-09-01T18:04:39.666Z,40.03
2022-09-01T18:07:25.825Z,39.82
2022-09-01T18:09:56.311Z,38.68
2022-09-01T18:12:35.705Z,38.86
2022-09-01T18:15:10.126Z,39.06
2022-09-01T18:17:41.921Z,38.47
2022-09-01T18:20:11.045Z,38.81
2022-09-01T18:22:40.097Z,38.83
2022-09-01T18:25:08.150Z,39.85
2022-09-01T18:27:36.841Z,39.90
2022-09-01T18:30:04.857Z,39.94
2022-09-01T18:32:33.614Z,39.58
2022-09-01T18:35:11.851Z,40.18
2022-09-01T18:37:42.457Z,40.43
2022-09-01T18:40:16.644Z,41.54
2022-09-01T18:42:54.301Z,41.18
2022-09-01T18:45:40.609Z,41.26
2022-09-01T18:48:08.108Z,41.52
2022-09-01T18:50:51.397Z,41.67
2022-09-01T18:53:28.081Z,42.02
2022-09-01T18:56:16.983Z,41.92
2022-09-01T18:58:44.464Z,41.81
2022-09-01T19:01:16.878Z,42.51
2022-09-01T19:03:46.779Z,41.90
2022-09-01T19:06:14.538Z,42.63
2022-09-01T19:09:00.834Z,43.06
2022-09-01T19:11:58.435Z,42.49
2022-09-01T19:14:29.347Z,42.15
2022-09-01T19:17:03.468Z,42.34
2022-09-01T19:19:37.922Z,42.28
2022-09-01T19:22:05.939Z,42.26
2022-09-01T19:24:36.227Z,42.12
2022-09-01T19:27:10.091Z,41.73
2022-09-01T19:29:42.075Z,42.57
2022-09-01T19:32:12.026Z,42.67
2022-09-01T19:34:41.133Z,43.23
2022-09-01T19:37:08.493Z,43.23
2022-09-01T19:39:37.355Z,43.39
2022-09-01T19:42:25.868Z,43.36
2022-09-01T19:45:11.741Z,43.56
2022-09-01T19:47:41.302Z,43.94
2022-09-01T19:50:21.342Z,44.54
2022-09-01T19:52:49.867Z,45.28
2022-09-01T19:55:19.573Z,45.22
2022-09-01T19:57:50.398Z,45.39
2022-09-01T20:00:36.232Z,45.58
2022-09-01T20:03:08.053Z,46.18
2022-09-01T20:05:36.226Z,46.47
2022-09-01T20:08:16.450Z,45.89
2022-09-01T20:10:56.438Z,45.89
2022-09-01T20:13:33.703Z,46.08
2022-09-01T20:16:19.805Z,46.14
2022-09-01T20:18:53.434Z,46.56
2022-09-01T20:21:21.458Z,46.91
2022-09-01T20:24:18.904Z,46.72
2022-09-01T20:26:49.829Z,46.57
2022-09-01T20:29:17.312Z,46.17
2022-09-01T20:31:46.315Z,47.12
2022-09-01T20:34:15.809Z,46.58
2022-09-01T20:36:48.961Z,46.63
2022-09-01T20:39:40.127Z,46.26
2022-09-01T20:42:07.764Z,46.03
2022-09-01T20:44:53.157Z,46.03
2022-09-01T20:47:21.526Z,46.75
2022-09-01T20:49:49.322Z,46.83
2022-09-01T20:52:20.942Z,46.67
2022-09-01T20:54:51.545Z,46.95
2022-09-01T20:57:21.941Z,45.99
2022-09-01T20:59:51.425Z,46.86
2022-09-01T21:02:18.758Z,46.01
2022-09-01T21:04:52.244Z,45.98
2022-09-01T21:09:46.727Z,45.78
2022-09-01T21:12:32.766Z,45.57
2022-09-01T21:15:06.844Z,45.66
2022-09-01T21:17:44.217Z,45.93
2022-09-01T21:20:11.732Z,45.51
2022-09-01T21:22:39.010Z,45.55
2022-09-01T21:25:06.463Z,45.43
2022-09-01T21:27:40.360Z,45.58
2022-09-01T21:30:09.492Z,45.85
2022-09-01T21:32:37.345Z,46.61
2022-09-01T21:35:05.511Z,46.41
2022-09-01T21:37:32.796Z,45.90
2022-09-01T21:40:00.364Z,46.26
2022-09-01T21:42:35.005Z,45.00
2022-09-01T21:45:03.785Z,44.51
2022-09-01T21:47:31.441Z,45.40
2022-09-01T21:49:58.777Z,44.72
2022-09-01T21:52:26.380Z,44.63
2022-09-01T21:54:53.894Z,41.62
2022-09-01T21:57:23.070Z,40.89
2022-09-01T21:59:51.443Z,42.17
2022-09-01T22:02:20.136Z,41.25
2022-09-01T22:04:48.912Z,40.36
2022-09-01T22:07:17.071Z,40.99
2022-09-01T22:09:45.117Z,39.33
2022-09-01T22:12:13.279Z,39.02
2022-09-01T22:14:40.520Z,40.41
2022-09-01T22:17:08.054Z,37.89
2022-09-01T22:19:35.811Z,38.50
2022-09-01T22:22:03.458Z,37.68
2022-09-01T22:24:30.729Z,37.52
2022-09-01T22:26:58.238Z,36.03
2022-09-01T22:29:25.559Z,34.93
2022-09-01T22:31:52.956Z,36.63
2022-09-01T22:36:48.385Z,34.97
2022-09-01T22:39:16.047Z,35.06
2022-09-01T22:41:43.573Z,33.52
2022-09-01T22:44:11.086Z,33.88
2022-09-01T22:46:39.292Z,34.77
2022-09-01T22:49:06.824Z,34.12
2022-09-01T22:51:34.244Z,35.43
2022-09-01T22:54:01.619Z,33.71
2022-09-01T22:56:31.304Z,34.45
2022-09-01T22:59:04.168Z,33.35
2022-09-01T23:01:33.686Z,33.51
2022-09-01T23:04:01.819Z,34.16
2022-09-01T23:06:29.552Z,34.41
2022-09-01T23:08:58.377Z,33.57
2022-09-01T23:11:25.886Z,33.63
2022-09-01T23:13:53.397Z,33.91
2022-09-01T23:16:21.621Z,33.69
2022-09-01T23:18:49.257Z,34.09
2022-09-01T23:21:18.089Z,32.87
2022-09-01T23:23:45.630Z,33.47
2022-09-01T23:26:13.662Z,32.40
2022-09-01T23:28:42.041Z,34.39
2022-09-01T23:31:10.482Z,33.27
2022-09-01T23:33:37.763Z,33.12
2022-09-01T23:36:06.031Z,33.85
2022-09-01T23:38:33.549Z,33.59
2022-09-01T23:41:04.149Z,35.40
2022-09-01T23:43:31.386Z,33.00
2022-09-01T23:45:58.969Z,34.55
2022-09-01T23:48:26.252Z,32.89
2022-09-01T23:50:57.576Z,33.40
2022-09-01T23:53:26.822Z,32.76
2022-09-01T23:55:55.017Z,33.29
2022-09-01T23:58:22.729Z,32.41
